sensor_id;sensor_type;location;lat;lon;timestamp;pressure;altitude;pressure_sealevel;temperature;humidity
66479;BME280;53294;47.912;13.526;2023-02-17T00:03:40;97075.72;;;6.10;54.06
66479;BME280;53294;47.912;13.526;2023-02-17T00:06:10;97078.34;;;6.05;53.53
66479;BME280;53294;47.912;13.526;2023-02-17T00:08:37;97070.31;;;6.22;53.11
66479;BME280;53294;47.912;13.526;2023-02-17T00:11:04;97063.78;;;6.13;53.96
66479;BME280;53294;47.912;13.526;2023-02-17T00:13:31;97066.91;;;6.26;53.13
66479;BME280;53294;47.912;13.526;2023-02-17T00:15:59;97081.63;;;6.12;53.42
66479;BME280;53294;47.912;13.526;2023-02-17T00:18:25;97077.09;;;6.29;52.88
66479;BME280;53294;47.912;13.526;2023-02-17T00:20:52;97080.81;;;6.28;53.10
66479;BME280;53294;47.912;13.526;2023-02-17T00:23:19;97074.97;;;6.32;52.89
66479;BME280;53294;47.912;13.526;2023-02-17T00:25:45;97081.50;;;6.41;52.75
66479;BME280;53294;47.912;13.526;2023-02-17T00:28:12;97074.44;;;6.52;52.18
66479;BME280;53294;47.912;13.526;2023-02-17T00:30:39;97083.84;;;6.54;52.11
66479;BME280;53294;47.912;13.526;2023-02-17T00:33:05;97074.19;;;6.53;52.26
66479;BME280;53294;47.912;13.526;2023-02-17T00:35:32;97076.81;;;6.48;52.62
66479;BME280;53294;47.912;13.526;2023-02-17T00:37:59;97079.63;;;6.41;53.12
66479;BME280;53294;47.912;13.526;2023-02-17T00:40:25;97085.56;;;6.43;53.10
66479;BME280;53294;47.912;13.526;2023-02-17T00:42:52;97089.44;;;6.36;53.16
66479;BME280;53294;47.912;13.526;2023-02-17T00:45:20;97086.69;;;6.31;53.40
66479;BME280;53294;47.912;13.526;2023-02-17T00:47:47;97080.81;;;6.51;52.49
66479;BME280;53294;47.912;13.526;2023-02-17T00:50:13;97084.25;;;6.46;53.02
66479;BME280;53294;47.912;13.526;2023-02-17T00:52:40;97088.53;;;6.47;52.94
66479;BME280;53294;47.912;13.526;2023-02-17T00:55:07;97087.53;;;6.53;52.52
66479;BME280;53294;47.912;13.526;2023-02-17T00:57:33;97085.25;;;6.62;52.20
66479;BME280;53294;47.912;13.526;2023-02-17T01:00:00;97083.16;;;6.64;52.21
66479;BME280;53294;47.912;13.526;2023-02-17T01:02:27;97074.84;;;6.60;52.75
66479;BME280;53294;47.912;13.526;2023-02-17T01:04:53;97074.44;;;6.52;53.00
66479;BME280;53294;47.912;13.526;2023-02-17T01:07:20;97075.09;;;6.59;52.76
66479;BME280;53294;47.912;13.526;2023-02-17T01:09:47;97071.19;;;6.67;52.09
66479;BME280;53294;47.912;13.526;2023-02-17T01:12:13;97072.28;;;6.71;52.21
66479;BME280;53294;47.912;13.526;2023-02-17T01:14:40;97064.56;;;6.52;52.80
66479;BME280;53294;47.912;13.526;2023-02-17T01:17:07;97065.84;;;6.67;52.33
66479;BME280;53294;47.912;13.526;2023-02-17T01:19:33;97057.13;;;6.54;53.06
66479;BME280;53294;47.912;13.526;2023-02-17T01:22:00;97064.22;;;6.65;52.40
66479;BME280;53294;47.912;13.526;2023-02-17T01:24:27;97060.59;;;6.33;54.25
66479;BME280;53294;47.912;13.526;2023-02-17T01:26:53;97047.69;;;6.46;53.59
66479;BME280;53294;47.912;13.526;2023-02-17T01:29:20;97054.91;;;6.68;52.55
66479;BME280;53294;47.912;13.526;2023-02-17T01:31:47;97047.94;;;6.67;52.76
66479;BME280;53294;47.912;13.526;2023-02-17T01:34:13;97041.81;;;6.67;52.89
66479;BME280;53294;47.912;13.526;2023-02-17T01:36:40;97037.66;;;6.76;52.39
66479;BME280;53294;47.912;13.526;2023-02-17T01:39:07;97041.97;;;6.82;52.14
66479;BME280;53294;47.912;13.526;2023-02-17T01:41:33;97040.41;;;6.86;51.98
66479;BME280;53294;47.912;13.526;2023-02-17T01:46:39;97021.47;;;6.21;55.06
66479;BME280;53294;47.912;13.526;2023-02-17T01:51:54;97017.50;;;6.46;54.54
66479;BME280;53294;47.912;13.526;2023-02-17T01:54:29;97010.25;;;6.41;54.14
66479;BME280;53294;47.912;13.526;2023-02-17T01:57:00;97006.66;;;6.53;53.70
66479;BME280;53294;47.912;13.526;2023-02-17T01:59:28;97007.16;;;6.50;53.81
66479;BME280;53294;47.912;13.526;2023-02-17T02:01:57;96989.31;;;6.55;54.33
66479;BME280;53294;47.912;13.526;2023-02-17T02:04:29;96990.03;;;6.45;54.50
66479;BME280;53294;47.912;13.526;2023-02-17T02:06:57;96995.75;;;6.15;55.71
66479;BME280;53294;47.912;13.526;2023-02-17T02:09:30;96990.53;;;6.42;54.71
66479;BME280;53294;47.912;13.526;2023-02-17T02:11:57;96987.06;;;6.42;54.55
66479;BME280;53294;47.912;13.526;2023-02-17T02:14:25;96997.09;;;6.57;53.93
66479;BME280;53294;47.912;13.526;2023-02-17T02:17:30;96995.59;;;6.66;53.84
66479;BME280;53294;47.912;13.526;2023-02-17T02:33:51;97000.81;;;6.78;53.88
66479;BME280;53294;47.912;13.526;2023-02-17T02:36:31;96996.50;;;6.77;53.92
66479;BME280;53294;47.912;13.526;2023-02-17T02:39:12;96998.13;;;6.78;53.96
66479;BME280;53294;47.912;13.526;2023-02-17T02:41:47;96997.28;;;6.50;55.23
66479;BME280;53294;47.912;13.526;2023-02-17T02:44:18;96997.41;;;6.60;55.23
66479;BME280;53294;47.912;13.526;2023-02-17T02:49:53;96999.22;;;6.82;54.07
66479;BME280;53294;47.912;13.526;2023-02-17T02:52:32;97005.03;;;6.52;55.26
66479;BME280;53294;47.912;13.526;2023-02-17T02:58:39;97002.47;;;6.84;54.36
66479;BME280;53294;47.912;13.526;2023-02-17T03:01:04;97003.97;;;6.75;55.23
66479;BME280;53294;47.912;13.526;2023-02-17T03:06:36;97004.06;;;6.85;54.39
66479;BME280;53294;47.912;13.526;2023-02-17T03:09:18;96999.72;;;6.79;54.95
66479;BME280;53294;47.912;13.526;2023-02-17T03:11:46;96995.41;;;6.73;55.16
66479;BME280;53294;47.912;13.526;2023-02-17T03:14:16;97000.94;;;6.66;55.50
66479;BME280;53294;47.912;13.526;2023-02-17T03:16:43;97005.53;;;6.71;55.14
66479;BME280;53294;47.912;13.526;2023-02-17T03:19:11;96990.66;;;6.80;54.89
66479;BME280;53294;47.912;13.526;2023-02-17T03:21:56;96991.84;;;6.89;55.03
66479;BME280;53294;47.912;13.526;2023-02-17T03:24:23;96992.03;;;6.82;54.90
66479;BME280;53294;47.912;13.526;2023-02-17T03:26:50;96993.66;;;6.61;55.70
66479;BME280;53294;47.912;13.526;2023-02-17T03:29:17;96996.81;;;6.80;54.90
66479;BME280;53294;47.912;13.526;2023-02-17T03:31:43;96996.75;;;6.75;55.03
66479;BME280;53294;47.912;13.526;2023-02-17T03:34:10;96983.03;;;6.89;54.53
66479;BME280;53294;47.912;13.526;2023-02-17T03:36:37;96996.00;;;6.80;55.07
66479;BME280;53294;47.912;13.526;2023-02-17T03:39:03;96991.22;;;6.82;55.15
66479;BME280;53294;47.912;13.526;2023-02-17T03:41:30;96991.69;;;7.01;54.18
66479;BME280;53294;47.912;13.526;2023-02-17T03:43:57;96993.97;;;6.87;54.70
66479;BME280;53294;47.912;13.526;2023-02-17T03:46:23;97004.72;;;6.70;55.46
66479;BME280;53294;47.912;13.526;2023-02-17T03:48:50;97003.56;;;6.88;54.71
66479;BME280;53294;47.912;13.526;2023-02-17T03:51:22;97002.97;;;6.81;55.11
66479;BME280;53294;47.912;13.526;2023-02-17T03:53:49;97014.53;;;6.64;56.01
66479;BME280;53294;47.912;13.526;2023-02-17T03:56:17;97011.94;;;6.70;55.33
66479;BME280;53294;47.912;13.526;2023-02-17T03:58:44;97008.13;;;6.88;54.87
66479;BME280;53294;47.912;13.526;2023-02-17T04:01:11;97004.66;;;6.87;55.00
66479;BME280;53294;47.912;13.526;2023-02-17T04:03:39;97005.84;;;7.01;54.47
66479;BME280;53294;47.912;13.526;2023-02-17T04:06:06;97009.13;;;6.59;55.93
66479;BME280;53294;47.912;13.526;2023-02-17T04:08:34;97013.44;;;6.60;56.07
66479;BME280;53294;47.912;13.526;2023-02-17T04:11:01;97013.03;;;6.74;55.50
66479;BME280;53294;47.912;13.526;2023-02-17T04:13:29;97002.97;;;6.81;55.04
66479;BME280;53294;47.912;13.526;2023-02-17T04:15:56;97007.31;;;6.87;55.13
66479;BME280;53294;47.912;13.526;2023-02-17T04:18:23;96999.88;;;6.94;54.55
66479;BME280;53294;47.912;13.526;2023-02-17T04:20:50;97004.69;;;6.92;54.87
66479;BME280;53294;47.912;13.526;2023-02-17T04:23:17;97006.09;;;7.00;54.63
66479;BME280;53294;47.912;13.526;2023-02-17T04:25:44;97006.81;;;6.90;54.86
66479;BME280;53294;47.912;13.526;2023-02-17T04:28:12;97016.31;;;6.81;55.46
66479;BME280;53294;47.912;13.526;2023-02-17T04:30:41;97000.25;;;6.76;55.44
66479;BME280;53294;47.912;13.526;2023-02-17T04:33:07;97011.03;;;6.86;54.91
66479;BME280;53294;47.912;13.526;2023-02-17T04:35:34;97004.56;;;6.82;54.95
66479;BME280;53294;47.912;13.526;2023-02-17T04:38:01;97002.66;;;6.77;55.50
66479;BME280;53294;47.912;13.526;2023-02-17T04:40:28;97010.41;;;6.79;55.21
66479;BME280;53294;47.912;13.526;2023-02-17T04:42:54;97006.19;;;6.83;54.80
66479;BME280;53294;47.912;13.526;2023-02-17T04:45:22;97003.47;;;6.78;55.27
66479;BME280;53294;47.912;13.526;2023-02-17T04:47:48;97000.75;;;6.73;54.89
66479;BME280;53294;47.912;13.526;2023-02-17T04:50:15;97003.06;;;6.91;54.44
66479;BME280;53294;47.912;13.526;2023-02-17T04:52:42;97000.97;;;6.93;54.55
66479;BME280;53294;47.912;13.526;2023-02-17T04:55:08;96995.13;;;6.96;54.36
66479;BME280;53294;47.912;13.526;2023-02-17T04:57:35;97001.66;;;6.83;55.37
66479;BME280;53294;47.912;13.526;2023-02-17T05:00:04;97000.50;;;7.01;54.87
66479;BME280;53294;47.912;13.526;2023-02-17T05:02:31;96980.00;;;6.80;55.37
66479;BME280;53294;47.912;13.526;2023-02-17T05:04:58;96984.94;;;6.93;54.85
66479;BME280;53294;47.912;13.526;2023-02-17T05:07:24;96991.13;;;6.72;55.51
66479;BME280;53294;47.912;13.526;2023-02-17T05:09:51;96991.66;;;6.74;55.51
66479;BME280;53294;47.912;13.526;2023-02-17T05:12:19;96977.72;;;6.67;55.56
66479;BME280;53294;47.912;13.526;2023-02-17T05:14:46;96981.19;;;6.67;55.58
66479;BME280;53294;47.912;13.526;2023-02-17T05:17:12;96972.72;;;6.75;55.47
66479;BME280;53294;47.912;13.526;2023-02-17T05:19:39;96970.09;;;6.53;56.08
66479;BME280;53294;47.912;13.526;2023-02-17T05:22:05;96973.31;;;6.55;55.94
66479;BME280;53294;47.912;13.526;2023-02-17T05:24:32;96968.09;;;6.65;55.45
66479;BME280;53294;47.912;13.526;2023-02-17T05:26:59;96961.53;;;6.78;54.59
66479;BME280;53294;47.912;13.526;2023-02-17T05:29:25;96968.22;;;6.76;55.60
66479;BME280;53294;47.912;13.526;2023-02-17T05:31:52;96969.81;;;6.77;54.94
66479;BME280;53294;47.912;13.526;2023-02-17T05:34:19;96961.84;;;6.82;54.55
66479;BME280;53294;47.912;13.526;2023-02-17T05:36:45;96961.75;;;6.72;54.46
66479;BME280;53294;47.912;13.526;2023-02-17T05:39:12;96963.47;;;6.56;55.69
66479;BME280;53294;47.912;13.526;2023-02-17T05:41:39;96959.00;;;6.89;53.84
66479;BME280;53294;47.912;13.526;2023-02-17T05:44:05;96957.41;;;6.93;53.65
66479;BME280;53294;47.912;13.526;2023-02-17T05:46:32;96959.75;;;6.84;53.60
66479;BME280;53294;47.912;13.526;2023-02-17T05:48:58;96967.44;;;7.08;52.97
66479;BME280;53294;47.912;13.526;2023-02-17T05:51:25;96972.94;;;7.23;52.85
66479;BME280;53294;47.912;13.526;2023-02-17T05:53:52;96965.38;;;7.15;52.29
66479;BME280;53294;47.912;13.526;2023-02-17T05:56:19;96958.69;;;7.17;52.64
66479;BME280;53294;47.912;13.526;2023-02-17T05:58:45;96959.06;;;7.26;52.03
66479;BME280;53294;47.912;13.526;2023-02-17T06:01:12;96957.22;;;6.99;53.76
66479;BME280;53294;47.912;13.526;2023-02-17T06:03:39;96956.09;;;6.95;54.99
66479;BME280;53294;47.912;13.526;2023-02-17T06:06:06;96957.13;;;7.16;53.73
66479;BME280;53294;47.912;13.526;2023-02-17T06:08:34;96952.81;;;7.15;52.16
66479;BME280;53294;47.912;13.526;2023-02-17T06:11:00;96956.63;;;7.25;52.77
66479;BME280;53294;47.912;13.526;2023-02-17T06:13:27;96961.22;;;7.29;52.19
66479;BME280;53294;47.912;13.526;2023-02-17T06:15:54;96962.63;;;7.37;52.59
66479;BME280;53294;47.912;13.526;2023-02-17T06:18:20;96966.66;;;7.40;51.88
66479;BME280;53294;47.912;13.526;2023-02-17T06:20:47;96962.41;;;7.44;51.53
66479;BME280;53294;47.912;13.526;2023-02-17T06:23:13;96962.91;;;7.41;50.89
66479;BME280;53294;47.912;13.526;2023-02-17T06:25:41;96962.75;;;7.58;50.18
66479;BME280;53294;47.912;13.526;2023-02-17T06:28:07;96955.66;;;7.36;50.33
66479;BME280;53294;47.912;13.526;2023-02-17T06:30:34;96947.50;;;7.58;50.41
66479;BME280;53294;47.912;13.526;2023-02-17T06:33:01;96949.25;;;7.75;50.09
66479;BME280;53294;47.912;13.526;2023-02-17T06:35:27;96948.75;;;7.83;49.96
66479;BME280;53294;47.912;13.526;2023-02-17T06:37:54;96946.63;;;7.85;49.72
66479;BME280;53294;47.912;13.526;2023-02-17T06:40:21;96941.66;;;8.09;49.55
66479;BME280;53294;47.912;13.526;2023-02-17T06:42:48;96944.66;;;8.18;49.00
66479;BME280;53294;47.912;13.526;2023-02-17T06:45:15;96927.28;;;8.20;48.45
66479;BME280;53294;47.912;13.526;2023-02-17T06:47:41;96923.81;;;8.25;46.90
66479;BME280;53294;47.912;13.526;2023-02-17T06:50:09;96916.06;;;8.34;48.17
66479;BME280;53294;47.912;13.526;2023-02-17T06:52:36;96917.13;;;8.33;48.82
66479;BME280;53294;47.912;13.526;2023-02-17T06:55:03;96919.06;;;8.42;49.31
66479;BME280;53294;47.912;13.526;2023-02-17T06:57:30;96934.28;;;8.26;48.55
66479;BME280;53294;47.912;13.526;2023-02-17T06:59:56;96937.41;;;8.08;49.96
66479;BME280;53294;47.912;13.526;2023-02-17T07:02:23;96924.72;;;7.88;49.89
66479;BME280;53294;47.912;13.526;2023-02-17T07:04:50;96921.56;;;8.01;50.53
66479;BME280;53294;47.912;13.526;2023-02-17T07:07:17;96923.00;;;8.30;50.12
66479;BME280;53294;47.912;13.526;2023-02-17T07:09:43;96915.38;;;8.54;49.82
66479;BME280;53294;47.912;13.526;2023-02-17T07:12:10;96904.69;;;8.64;48.79
66479;BME280;53294;47.912;13.526;2023-02-17T07:14:36;96906.28;;;8.65;49.34
66479;BME280;53294;47.912;13.526;2023-02-17T07:17:03;96921.56;;;8.65;49.14
66479;BME280;53294;47.912;13.526;2023-02-17T07:19:30;96920.72;;;8.59;48.68
66479;BME280;53294;47.912;13.526;2023-02-17T07:21:56;96924.22;;;8.70;48.10
66479;BME280;53294;47.912;13.526;2023-02-17T07:24:23;96929.88;;;8.84;47.74
66479;BME280;53294;47.912;13.526;2023-02-17T07:26:50;96927.75;;;8.86;46.81
66479;BME280;53294;47.912;13.526;2023-02-17T07:29:19;96924.28;;;8.95;45.85
66479;BME280;53294;47.912;13.526;2023-02-17T07:31:45;96927.75;;;8.96;46.04
66479;BME280;53294;47.912;13.526;2023-02-17T07:34:12;96931.78;;;9.04;45.92
66479;BME280;53294;47.912;13.526;2023-02-17T07:36:39;96929.09;;;8.88;46.49
66479;BME280;53294;47.912;13.526;2023-02-17T07:39:05;96935.56;;;9.03;44.28
66479;BME280;53294;47.912;13.526;2023-02-17T07:41:32;96928.31;;;9.08;44.16
66479;BME280;53294;47.912;13.526;2023-02-17T07:43:59;96932.34;;;9.11;45.14
66479;BME280;53294;47.912;13.526;2023-02-17T07:46:26;96927.78;;;9.27;45.11
66479;BME280;53294;47.912;13.526;2023-02-17T07:48:55;96934.75;;;9.23;45.78
66479;BME280;53294;47.912;13.526;2023-02-17T07:51:22;96926.69;;;9.23;45.94
66479;BME280;53294;47.912;13.526;2023-02-17T07:53:50;96931.25;;;9.22;46.27
66479;BME280;53294;47.912;13.526;2023-02-17T07:56:18;96936.38;;;9.34;45.19
66479;BME280;53294;47.912;13.526;2023-02-17T07:58:47;96940.66;;;9.45;44.13
66479;BME280;53294;47.912;13.526;2023-02-17T08:03:42;96952.97;;;9.57;45.79
66479;BME280;53294;47.912;13.526;2023-02-17T08:06:11;96953.50;;;9.74;45.49
66479;BME280;53294;47.912;13.526;2023-02-17T08:08:38;96956.16;;;9.79;44.52
66479;BME280;53294;47.912;13.526;2023-02-17T08:11:23;96965.00;;;9.85;44.19
66479;BME280;53294;47.912;13.526;2023-02-17T08:14:11;96957.75;;;9.80;43.84
66479;BME280;53294;47.912;13.526;2023-02-17T08:16:38;96963.66;;;9.87;44.39
66479;BME280;53294;47.912;13.526;2023-02-17T08:19:05;96927.66;;;9.99;43.91
66479;BME280;53294;47.912;13.526;2023-02-17T08:21:33;96955.88;;;9.86;43.20
66479;BME280;53294;47.912;13.526;2023-02-17T08:24:00;96965.81;;;9.91;44.64
66479;BME280;53294;47.912;13.526;2023-02-17T08:26:27;96959.31;;;10.02;43.98
66479;BME280;53294;47.912;13.526;2023-02-17T08:28:54;96941.31;;;10.13;43.34
66479;BME280;53294;47.912;13.526;2023-02-17T08:31:24;96948.00;;;10.26;44.54
66479;BME280;53294;47.912;13.526;2023-02-17T08:33:51;96939.84;;;10.51;47.37
66479;BME280;53294;47.912;13.526;2023-02-17T08:36:19;96950.84;;;10.60;48.68
66479;BME280;53294;47.912;13.526;2023-02-17T08:38:48;96949.97;;;10.70;49.88
66479;BME280;53294;47.912;13.526;2023-02-17T08:41:20;96924.63;;;10.86;49.54
66479;BME280;53294;47.912;13.526;2023-02-17T08:43:48;96933.16;;;10.99;49.74
66479;BME280;53294;47.912;13.526;2023-02-17T08:46:16;96937.31;;;11.15;48.90
66479;BME280;53294;47.912;13.526;2023-02-17T08:48:44;96946.94;;;11.26;48.55
66479;BME280;53294;47.912;13.526;2023-02-17T08:51:13;96949.25;;;11.38;48.08
66479;BME280;53294;47.912;13.526;2023-02-17T08:53:40;96953.22;;;11.46;47.86
66479;BME280;53294;47.912;13.526;2023-02-17T08:56:07;96953.22;;;11.46;46.19
66479;BME280;53294;47.912;13.526;2023-02-17T08:58:35;96946.19;;;11.50;45.99
66479;BME280;53294;47.912;13.526;2023-02-17T09:01:02;96952.16;;;11.42;46.56
66479;BME280;53294;47.912;13.526;2023-02-17T09:03:29;96942.19;;;11.47;46.24
66479;BME280;53294;47.912;13.526;2023-02-17T09:05:58;96956.03;;;11.30;47.87
66479;BME280;53294;47.912;13.526;2023-02-17T09:08:26;96957.44;;;11.23;49.74
66479;BME280;53294;47.912;13.526;2023-02-17T09:10:52;96957.91;;;10.95;50.48
66479;BME280;53294;47.912;13.526;2023-02-17T09:13:19;96956.78;;;10.96;50.53
66479;BME280;53294;47.912;13.526;2023-02-17T09:15:46;96951.16;;;10.98;50.83
66479;BME280;53294;47.912;13.526;2023-02-17T09:18:13;96954.06;;;11.07;50.66
66479;BME280;53294;47.912;13.526;2023-02-17T09:20:40;96958.31;;;11.13;50.32
66479;BME280;53294;47.912;13.526;2023-02-17T09:23:06;96949.13;;;11.19;50.50
66479;BME280;53294;47.912;13.526;2023-02-17T09:25:33;96954.69;;;11.33;50.72
66479;BME280;53294;47.912;13.526;2023-02-17T09:28:00;96967.84;;;11.35;50.41
66479;BME280;53294;47.912;13.526;2023-02-17T09:30:27;96961.34;;;11.41;49.94
66479;BME280;53294;47.912;13.526;2023-02-17T09:32:54;96975.31;;;11.43;50.00
66479;BME280;53294;47.912;13.526;2023-02-17T09:35:20;96970.41;;;11.50;50.07
66479;BME280;53294;47.912;13.526;2023-02-17T09:37:47;96975.22;;;11.53;50.09
66479;BME280;53294;47.912;13.526;2023-02-17T09:40:20;96974.69;;;11.51;49.80
66479;BME280;53294;47.912;13.526;2023-02-17T09:42:47;96980.97;;;11.02;51.79
66479;BME280;53294;47.912;13.526;2023-02-17T09:45:41;96974.63;;;10.82;51.98
66479;BME280;53294;47.912;13.526;2023-02-17T09:48:12;96982.03;;;10.51;52.04
66479;BME280;53294;47.912;13.526;2023-02-17T09:51:05;96982.34;;;10.39;51.85
66479;BME280;53294;47.912;13.526;2023-02-17T09:56:24;96997.91;;;10.47;51.60
66479;BME280;53294;47.912;13.526;2023-02-17T09:58:58;96978.78;;;10.59;50.52
66479;BME280;53294;47.912;13.526;2023-02-17T10:01:30;96990.59;;;10.63;50.52
66479;BME280;53294;47.912;13.526;2023-02-17T10:06:33;96986.53;;;10.71;50.91
66479;BME280;53294;47.912;13.526;2023-02-17T10:09:11;96980.28;;;10.81;50.04
66479;BME280;53294;47.912;13.526;2023-02-17T10:11:43;96977.50;;;10.96;50.33
66479;BME280;53294;47.912;13.526;2023-02-17T10:14:16;96977.19;;;11.03;49.35
66479;BME280;53294;47.912;13.526;2023-02-17T10:16:50;96973.66;;;11.07;49.31
66479;BME280;53294;47.912;13.526;2023-02-17T10:19:29;96969.13;;;11.08;49.61
66479;BME280;53294;47.912;13.526;2023-02-17T10:22:03;96974.97;;;11.15;49.85
66479;BME280;53294;47.912;13.526;2023-02-17T10:24:32;96986.03;;;11.08;49.34
66479;BME280;53294;47.912;13.526;2023-02-17T10:40:33;96990.53;;;11.18;51.17
66479;BME280;53294;47.912;13.526;2023-02-17T10:43:01;96987.09;;;11.12;51.96
66479;BME280;53294;47.912;13.526;2023-02-17T10:48:06;96981.47;;;11.43;53.58
66479;BME280;53294;47.912;13.526;2023-02-17T10:50:35;96991.69;;;11.46;53.71
66479;BME280;53294;47.912;13.526;2023-02-17T10:53:12;96986.50;;;11.55;55.24
66479;BME280;53294;47.912;13.526;2023-02-17T10:55:49;96990.88;;;11.46;55.47
66479;BME280;53294;47.912;13.526;2023-02-17T10:58:23;96983.31;;;11.53;55.48
66479;BME280;53294;47.912;13.526;2023-02-17T11:00:53;96982.38;;;11.34;56.04
66479;BME280;53294;47.912;13.526;2023-02-17T11:03:27;96988.81;;;11.38;56.74
66479;BME280;53294;47.912;13.526;2023-02-17T11:06:17;96986.28;;;11.12;58.36
66479;BME280;53294;47.912;13.526;2023-02-17T11:08:59;96987.09;;;11.12;58.73
66479;BME280;53294;47.912;13.526;2023-02-17T11:11:28;96986.00;;;11.13;58.62
66479;BME280;53294;47.912;13.526;2023-02-17T11:14:09;96985.16;;;11.23;59.36
66479;BME280;53294;47.912;13.526;2023-02-17T11:16:43;96979.41;;;11.35;59.32
66479;BME280;53294;47.912;13.526;2023-02-17T11:19:26;96985.69;;;11.20;58.36
66479;BME280;53294;47.912;13.526;2023-02-17T11:21:55;96973.91;;;10.66;61.46
66479;BME280;53294;47.912;13.526;2023-02-17T11:24:23;96971.97;;;10.77;62.08
66479;BME280;53294;47.912;13.526;2023-02-17T11:29:23;96989.78;;;10.57;64.15
66479;BME280;53294;47.912;13.526;2023-02-17T11:32:06;96968.66;;;10.35;66.02
66479;BME280;53294;47.912;13.526;2023-02-17T11:34:36;96974.34;;;10.08;69.31
66479;BME280;53294;47.912;13.526;2023-02-17T11:39:44;96958.75;;;10.15;67.12
66479;BME280;53294;47.912;13.526;2023-02-17T11:42:26;96948.34;;;9.88;67.80
66479;BME280;53294;47.912;13.526;2023-02-17T11:44:55;96943.31;;;9.50;69.80
66479;BME280;53294;47.912;13.526;2023-02-17T11:53:43;96915.94;;;9.74;70.79
66479;BME280;53294;47.912;13.526;2023-02-17T11:56:16;96901.97;;;9.82;69.11
66479;BME280;53294;47.912;13.526;2023-02-17T12:04:30;96903.00;;;9.86;67.48
66479;BME280;53294;47.912;13.526;2023-02-17T12:07:33;96886.13;;;9.86;67.55
66479;BME280;53294;47.912;13.526;2023-02-17T12:13:17;96888.31;;;9.68;66.74
66479;BME280;53294;47.912;13.526;2023-02-17T12:18:49;96877.81;;;9.82;66.69
66479;BME280;53294;47.912;13.526;2023-02-17T12:24:33;96877.03;;;9.77;65.89
66479;BME280;53294;47.912;13.526;2023-02-17T12:34:54;96849.28;;;10.07;64.68
66479;BME280;53294;47.912;13.526;2023-02-17T12:37:29;96845.16;;;10.25;65.81
66479;BME280;53294;47.912;13.526;2023-02-17T12:40:18;96836.75;;;10.42;65.62
66479;BME280;53294;47.912;13.526;2023-02-17T12:43:00;96834.78;;;10.58;64.60
66479;BME280;53294;47.912;13.526;2023-02-17T12:45:40;96832.19;;;10.82;62.99
66479;BME280;53294;47.912;13.526;2023-02-17T12:48:34;96832.91;;;10.93;61.62
66479;BME280;53294;47.912;13.526;2023-02-17T12:51:10;96826.44;;;11.28;60.76
66479;BME280;53294;47.912;13.526;2023-02-17T12:54:02;96820.91;;;11.44;61.08
66479;BME280;53294;47.912;13.526;2023-02-17T12:59:15;96810.44;;;11.42;59.47
66479;BME280;53294;47.912;13.526;2023-02-17T13:01:53;96799.59;;;11.47;60.51
66479;BME280;53294;47.912;13.526;2023-02-17T13:04:22;96787.59;;;11.64;59.78
66479;BME280;53294;47.912;13.526;2023-02-17T13:07:38;96788.34;;;11.94;59.93
66479;BME280;53294;47.912;13.526;2023-02-17T13:09:55;96786.22;;;12.29;57.80
66479;BME280;53294;47.912;13.526;2023-02-17T13:14:58;96780.38;;;12.79;56.21
66479;BME280;53294;47.912;13.526;2023-02-17T13:20:24;96781.91;;;12.99;54.73
66479;BME280;53294;47.912;13.526;2023-02-17T13:23:03;96780.97;;;13.08;53.92
66479;BME280;53294;47.912;13.526;2023-02-17T13:25:33;96774.44;;;13.42;54.98
66479;BME280;53294;47.912;13.526;2023-02-17T13:28:16;96775.44;;;13.46;51.27
66479;BME280;53294;47.912;13.526;2023-02-17T13:30:44;96783.44;;;13.52;52.74
66479;BME280;53294;47.912;13.526;2023-02-17T13:33:39;96782.22;;;13.58;51.73
66479;BME280;53294;47.912;13.526;2023-02-17T13:36:21;96781.25;;;13.68;53.58
66479;BME280;53294;47.912;13.526;2023-02-17T13:39:02;96761.09;;;14.38;51.16
66479;BME280;53294;47.912;13.526;2023-02-17T13:41:47;96774.91;;;14.96;49.93
66479;BME280;53294;47.912;13.526;2023-02-17T13:47:05;96759.53;;;14.60;48.92
66479;BME280;53294;47.912;13.526;2023-02-17T13:49:33;96753.47;;;14.77;48.46
66479;BME280;53294;47.912;13.526;2023-02-17T13:52:16;96757.25;;;14.76;48.76
66479;BME280;53294;47.912;13.526;2023-02-17T13:55:19;96768.28;;;14.43;49.15
66479;BME280;53294;47.912;13.526;2023-02-17T13:57:51;96763.94;;;14.33;50.27
66479;BME280;53294;47.912;13.526;2023-02-17T14:00:22;96763.72;;;14.88;48.70
66479;BME280;53294;47.912;13.526;2023-02-17T14:03:16;96770.09;;;14.93;47.96
66479;BME280;53294;47.912;13.526;2023-02-17T14:05:45;96774.97;;;14.82;48.73
66479;BME280;53294;47.912;13.526;2023-02-17T14:08:34;96760.84;;;14.26;49.02
66479;BME280;53294;47.912;13.526;2023-02-17T14:11:14;96767.78;;;14.04;50.67
66479;BME280;53294;47.912;13.526;2023-02-17T14:13:44;96764.38;;;14.12;49.57
66479;BME280;53294;47.912;13.526;2023-02-17T14:16:32;96772.19;;;14.14;49.63
66479;BME280;53294;47.912;13.526;2023-02-17T14:19:11;96775.00;;;13.95;50.22
66479;BME280;53294;47.912;13.526;2023-02-17T14:21:55;96770.19;;;13.92;50.30
66479;BME280;53294;47.912;13.526;2023-02-17T14:24:32;96783.22;;;13.90;51.19
66479;BME280;53294;47.912;13.526;2023-02-17T14:27:09;96768.03;;;13.66;51.99
66479;BME280;53294;47.912;13.526;2023-02-17T14:29:41;96769.22;;;13.88;52.14
66479;BME280;53294;47.912;13.526;2023-02-17T14:35:28;96776.03;;;13.71;52.69
66479;BME280;53294;47.912;13.526;2023-02-17T14:38:09;96769.84;;;13.57;52.68
66479;BME280;53294;47.912;13.526;2023-02-17T14:40:44;96758.56;;;13.41;52.95
66479;BME280;53294;47.912;13.526;2023-02-17T14:43:10;96765.75;;;13.13;53.52
66479;BME280;53294;47.912;13.526;2023-02-17T14:45:37;96768.00;;;13.24;53.20
66479;BME280;53294;47.912;13.526;2023-02-17T14:48:04;96757.59;;;13.18;53.16
66479;BME280;53294;47.912;13.526;2023-02-17T14:50:32;96768.38;;;13.18;53.57
66479;BME280;53294;47.912;13.526;2023-02-17T14:52:59;96757.59;;;13.18;53.20
66479;BME280;53294;47.912;13.526;2023-02-17T14:55:35;96761.97;;;13.14;52.43
66479;BME280;53294;47.912;13.526;2023-02-17T14:58:04;96776.56;;;13.13;53.38